Time;durP1;ratioP1;P1;durP2;ratioP2;P2;SDS_P1;SDS_P2;PMS_P1;PMS_P2;Temp;Humidity;BMP_temperature;BMP_pressure;BME280_temperature;BME280_humidity;BME280_pressure;Samples;Min_cycle;Max_cycle;Signal;HPM_P1;HPM_P2
2023/07/25 02:21:33;;;;;;;4.65;2.83;;;21.80;94.80;;;;;;7289626;19;2004280;-77
2023/07/25 02:52:10;;;;;;;4.18;2.53;;;21.80;94.70;;;;;;4707036;19;20964984;-78
2023/07/25 07:04:18;;;;;;;7.20;4.60;;;20.60;96.80;;;;;;7389928;19;20283;-77
2023/07/25 07:10:12;;;;;;;9.70;5.55;;;20.60;97.20;;;;;;7380022;19;20242;-76
2023/07/25 07:15:52;;;;;;;14.75;7.63;;;20.20;96.90;;;;;;7377529;19;20346;-77
2023/07/25 07:21:56;;;;;;;18.00;9.43;;;19.80;97.40;;;;;;7376006;19;20070;-77
2023/07/25 07:27:44;;;;;;;19.23;10.23;;;19.40;96.60;;;;;;7381304;19;20006;-78
2023/07/25 07:53:05;;;;;;;13.75;7.88;;;18.90;96.10;;;;;;7388379;19;20011;-77
2023/07/25 07:55:53;;;;;;;17.63;7.40;;;19.00;97.00;;;;;;7407897;19;20366;-76
2023/07/25 08:36:59;;;;;;;9.82;4.68;;;19.20;95.20;;;;;;7390524;19;19998;-77
2023/07/25 08:39:31;;;;;;;8.50;2.63;;;19.20;94.80;;;;;;7411141;19;20219;-75
2023/07/25 08:45:18;;;;;;;6.80;2.15;;;19.40;94.30;;;;;;7307749;19;2004365;-76
2023/07/25 08:51:09;;;;;;;6.22;2.35;;;19.50;94.00;;;;;;7413050;19;20062;-75
2023/07/25 09:13:01;;;;;;;4.10;2.27;;;19.10;91.10;;;;;;7431927;19;20329;-75
2023/07/25 09:16:21;;;;;;;4.75;1.92;;;19.20;91.50;;;;;;7412380;19;20045;-77
2023/07/25 09:32:39;;;;;;;3.93;2.10;;;20.00;88.90;;;;;;7402090;19;19987;-74
2023/07/25 09:40:40;;;;;;;4.80;2.15;;;19.90;90.40;;;;;;7381688;19;20078;-76
2023/07/25 09:44:05;;;;;;;;;;;;;;;;;;;;;
2023/07/25 10:26:35;;;;;;;7.93;3.13;;;20.50;87.70;;;;;;7415131;19;19979;-76
2023/07/25 10:29:45;;;;;;;7.30;3.22;;;20.40;86.60;;;;;;7388344;19;20007;-76
2023/07/25 11:27:35;;;;;;;10.70;3.70;;;21.70;83.40;;;;;;5486645;19;26131829;-75
2023/07/25 11:34:28;;;;;;;7.80;3.75;;;22.10;82.20;;;;;;7439792;19;19979;-75
2023/07/25 11:36:58;;;;;;;9.50;3.78;;;22.10;82.10;;;;;;7216536;19;2004707;-75
2023/07/25 11:39:27;;;;;;;8.10;3.30;;;22.10;81.70;;;;;;7422806;19;20024;-75
2023/07/25 11:41:57;;;;;;;8.15;3.55;;;21.90;80.70;;;;;;7443043;19;20028;-75
2023/07/25 11:48:36;;;;;;;7.95;3.03;;;21.90;80.80;;;;;;7398350;19;20283;-77
2023/07/25 11:51:08;;;;;;;8.95;3.22;;;21.90;80.70;;;;;;7436177;19;20007;-75
2023/07/25 11:57:43;;;;;;;7.07;3.05;;;22.00;79.60;;;;;;7395855;19;20089;-75
2023/07/25 12:03:21;;;;;;;10.63;3.03;;;22.10;79.40;;;;;;7442752;19;20312;-73
2023/07/25 12:05:55;;;;;;;6.78;2.03;;;21.80;79.20;;;;;;7420919;19;20011;-74
2023/07/25 12:18:03;;;;;;;6.68;2.00;;;21.10;78.30;;;;;;7440920;19;20381;-77
2023/07/25 12:20:42;;;;;;;5.13;2.20;;;21.30;78.30;;;;;;7418210;19;20010;-75
2023/07/25 12:26:46;;;;;;;11.35;2.53;;;21.20;78.00;;;;;;7395567;19;20276;-77
2023/07/25 12:29:27;;;;;;;4.53;2.10;;;21.30;78.50;;;;;;7440753;19;20030;-77
2023/07/25 12:31:59;;;;;;;5.80;2.38;;;21.40;78.80;;;;;;7421121;19;20035;-77
2023/07/25 12:38:08;;;;;;;4.72;2.35;;;21.50;78.00;;;;;;7414884;19;20027;-72
2023/07/25 12:40:37;;;;;;;5.43;2.25;;;21.30;77.60;;;;;;7408351;19;20007;-74
2023/07/25 12:46:50;;;;;;;5.43;2.45;;;21.30;78.20;;;;;;7438585;19;20001;-76
2023/07/25 13:12:24;;;;;;;6.10;2.85;;;21.70;79.10;;;;;;5638428;19;3103794;-74
2023/07/25 13:23:15;;;;;;;9.82;2.80;;;22.00;79.00;;;;;;7372247;19;20495;-74
2023/07/25 13:25:49;;;;;;;7.40;2.63;;;22.20;78.80;;;;;;7415390;19;20006;-74
2023/07/25 13:28:21;;;;;;;7.80;2.30;;;22.30;77.40;;;;;;7414075;19;20011;-74
2023/07/25 13:30:53;;;;;;;3.42;2.17;;;22.50;74.20;;;;;;7435527;19;20023;-76
2023/07/25 13:33:24;;;;;;;7.90;2.13;;;22.60;74.20;;;;;;7412587;19;20002;-74
2023/07/25 13:36:16;;;;;;;5.95;2.05;;;22.50;72.30;;;;;;7440723;19;20091;-76
2023/07/25 13:38:46;;;;;;;;;;;22.40;71.00;;;;;;7415594;19;20034;-75
2023/07/25 13:41:15;;;;;;;7.95;2.05;;;22.40;71.90;;;;;;7423114;19;19911;-76
2023/07/25 13:43:46;;;;;;;4.10;1.80;;;22.50;72.50;;;;;;7422076;19;20034;-74
2023/07/25 13:46:15;;;;;;;;;;;22.60;67.10;;;;;;7412686;19;20010;-75
2023/07/25 13:48:44;;;;;;;3.08;1.65;;;22.60;68.00;;;;;;7413738;19;19911;-74
2023/07/25 13:51:15;;;;;;;9.88;2.22;;;22.80;68.60;;;;;;7432445;19;20013;-74
2023/07/25 13:53:47;;;;;;;9.00;2.30;;;22.90;69.70;;;;;;7413029;19;20024;-74
2023/07/25 13:56:16;;;;;;;5.05;2.15;;;23.00;69.70;;;;;;7412229;19;20003;-74
2023/07/25 13:58:48;;;;;;;4.28;2.13;;;23.10;68.00;;;;;;7412597;19;20025;-74
2023/07/25 14:01:17;;;;;;;4.53;1.70;;;23.20;68.50;;;;;;7411054;19;20010;-73
2023/07/25 14:03:47;;;;;;;3.83;1.88;;;23.40;65.90;;;;;;7411930;19;20006;-73
2023/07/25 14:06:19;;;;;;;4.18;1.80;;;23.40;66.20;;;;;;7414393;19;20014;-75
2023/07/25 14:08:56;;;;;;;3.72;1.70;;;23.30;66.70;;;;;;7425853;19;20024;-77
2023/07/25 14:11:27;;;;;;;9.20;1.95;;;23.20;67.50;;;;;;7382973;19;20097;-75
2023/07/25 15:01:51;;;;;;;3.35;2.10;;;23.50;66.10;;;;;;7376834;19;20078;-75
2023/07/25 15:11:13;;;;;;;8.05;1.75;;;23.00;66.70;;;;;;7401491;19;19974;-77
2023/07/25 15:13:45;;;;;;;3.00;1.77;;;22.90;67.60;;;;;;7380174;19;20137;-72
2023/07/25 15:16:20;;;;;;;6.10;2.10;;;22.90;69.10;;;;;;7380363;19;20009;-76
2023/07/25 15:18:49;;;;;;;13.52;2.10;;;22.90;68.80;;;;;;7377373;19;20007;-75
2023/07/25 15:21:18;;;;;;;11.60;1.90;;;22.90;68.60;;;;;;7375507;19;20018;-75
2023/07/25 15:23:52;;;;;;;3.95;1.90;;;22.90;68.60;;;;;;7398043;19;20007;-75
2023/07/25 15:26:45;;;;;;;;;;;;;;;;;;;;;
2023/07/25 15:29:20;;;;;;;2.95;1.60;;;23.00;69.40;;;;;;7356027;19;20006;-75
2023/07/25 15:31:51;;;;;;;7.47;1.92;;;23.00;69.30;;;;;;7401355;19;20024;-76
2023/07/25 15:37:58;;;;;;;5.03;1.90;;;23.10;68.10;;;;;;7381464;19;20024;-78
2023/07/25 15:40:33;;;;;;;3.20;2.00;;;23.10;68.10;;;;;;7376673;19;20007;-75
2023/07/25 15:43:01;;;;;;;5.55;1.50;;;23.10;68.30;;;;;;7377321;19;20044;-75
2023/07/25 15:45:34;;;;;;;5.70;1.63;;;23.00;65.20;;;;;;7397738;19;20102;-75
2023/07/25 15:48:04;;;;;;;3.08;1.73;;;22.80;66.30;;;;;;7401952;19;20022;-75
2023/07/25 15:50:36;;;;;;;4.40;1.63;;;22.60;67.60;;;;;;7385151;19;20025;-76
2023/07/25 15:53:05;;;;;;;6.05;1.90;;;22.70;68.90;;;;;;7383686;19;20014;-74
2023/07/25 15:55:34;;;;;;;10.18;1.92;;;22.70;70.50;;;;;;7383668;19;20585;-71
2023/07/25 15:58:03;;;;;;;4.35;1.67;;;22.40;71.20;;;;;;7380869;19;20417;-70
2023/07/25 16:00:34;;;;;;;5.57;2.08;;;22.40;71.90;;;;;;7382985;19;20017;-71
2023/07/25 16:03:09;;;;;;;5.38;2.10;;;22.40;71.90;;;;;;7406229;19;20041;-74
2023/07/25 16:05:54;;;;;;;2.90;1.65;;;22.30;72.20;;;;;;7383366;19;20010;-75
2023/07/25 16:08:23;;;;;;;4.90;1.90;;;22.40;73.40;;;;;;7384038;19;20030;-73
2023/07/25 16:11:00;;;;;;;5.00;1.83;;;22.50;74.40;;;;;;7382464;19;20010;-77
2023/07/25 16:13:48;;;;;;;4.70;1.85;;;22.90;73.60;;;;;;7380624;19;20015;-77
2023/07/25 17:09:36;;;;;;;2.33;1.42;;;22.20;72.50;;;;;;7300484;19;20176;-76
2023/07/25 18:12:24;;;;;;;2.75;1.63;;;21.40;76.00;;;;;;7278891;19;19994;-72
2023/07/25 18:14:53;;;;;;;2.90;1.60;;;21.30;75.50;;;;;;7405696;19;20055;-73
2023/07/25 18:17:22;;;;;;;4.25;1.40;;;21.40;75.70;;;;;;7383132;19;20014;-73
2023/07/25 18:19:50;;;;;;;3.20;1.25;;;21.40;73.90;;;;;;7382852;19;20024;-72
2023/07/25 18:22:19;;;;;;;4.90;1.65;;;21.50;74.50;;;;;;7383471;19;20015;-73
2023/07/25 18:24:48;;;;;;;2.47;1.98;;;21.60;74.50;;;;;;7383622;19;20079;-73
2023/07/25 18:27:16;;;;;;;2.75;1.60;;;21.60;73.40;;;;;;7380302;19;20051;-74
2023/07/25 18:29:49;;;;;;;1.63;1.52;;;21.70;73.80;;;;;;7404268;19;20019;-74
2023/07/25 18:32:18;;;;;;;2.13;1.30;;;21.70;73.20;;;;;;7385858;19;20036;-74
2023/07/25 18:34:46;;;;;;;4.43;1.73;;;21.60;73.00;;;;;;7382883;19;20083;-73
2023/07/25 18:37:15;;;;;;;5.35;1.90;;;21.60;73.80;;;;;;7382552;19;20214;-72
2023/07/25 18:39:44;;;;;;;5.43;1.60;;;21.60;73.60;;;;;;7381994;19;20006;-72
2023/07/25 18:42:13;;;;;;;3.47;1.60;;;21.50;73.80;;;;;;7404500;19;20019;-73
2023/07/25 18:44:41;;;;;;;4.32;1.85;;;21.50;74.00;;;;;;7381920;19;20003;-73
2023/07/25 18:47:13;;;;;;;3.50;1.50;;;21.50;74.80;;;;;;7382005;19;20066;-73
2023/07/25 18:49:42;;;;;;;1.52;1.42;;;21.50;75.00;;;;;;7382604;19;20029;-73
2023/07/25 18:52:10;;;;;;;3.13;1.83;;;21.40;74.80;;;;;;7382970;19;20003;-73
2023/07/25 18:54:39;;;;;;;2.20;1.45;;;21.40;75.00;;;;;;7383129;19;20011;-72
2023/07/25 18:57:08;;;;;;;1.60;1.30;;;21.40;75.20;;;;;;7404033;19;20027;-73
2023/07/25 18:59:37;;;;;;;4.80;2.10;;;21.50;76.10;;;;;;7379768;19;20015;-73
2023/07/25 19:02:06;;;;;;;3.15;1.60;;;21.70;74.40;;;;;;7381840;19;20019;-72
2023/07/25 19:04:37;;;;;;;6.05;1.70;;;22.00;74.00;;;;;;7382347;19;20010;-72
2023/07/25 19:07:06;;;;;;;;;;;22.00;74.00;;;;;;7380916;19;20007;-73
2023/07/25 19:09:35;;;;;;;1.58;1.40;;;22.10;74.90;;;;;;7382902;19;20181;-73
2023/07/25 19:12:03;;;;;;;3.53;1.88;;;22.10;74.90;;;;;;7403642;19;20003;-73
2023/07/25 19:14:32;;;;;;;3.40;1.88;;;22.00;75.20;;;;;;7381316;19;20003;-73
2023/07/25 19:17:01;;;;;;;5.43;1.90;;;21.90;75.50;;;;;;7380930;19;20010;-73
2023/07/25 19:19:29;;;;;;;5.53;1.63;;;21.90;76.40;;;;;;7381113;19;20002;-73
2023/07/25 19:22:01;;;;;;;3.70;1.73;;;21.80;77.50;;;;;;7381821;19;20002;-73
2023/07/25 19:24:30;;;;;;;5.70;2.22;;;21.80;78.50;;;;;;7381617;19;20015;-71
2023/07/25 19:26:59;;;;;;;3.67;1.73;;;21.80;78.50;;;;;;7403736;19;20003;-72
2023/07/25 19:29:28;;;;;;;2.55;1.50;;;21.80;78.20;;;;;;7382437;19;20006;-73
2023/07/25 19:31:57;;;;;;;4.50;2.00;;;21.60;78.50;;;;;;7384157;19;20011;-73
2023/07/25 19:34:25;;;;;;;3.35;1.80;;;21.50;79.30;;;;;;7383941;19;20014;-72
2023/07/25 19:36:54;;;;;;;3.13;1.38;;;21.40;79.50;;;;;;7382862;19;20064;-73
2023/07/25 19:39:25;;;;;;;2.28;1.40;;;21.30;80.10;;;;;;7384058;19;20006;-73
2023/07/25 19:41:54;;;;;;;;;;;21.20;80.40;;;;;;7407955;19;20007;-72
2023/07/25 19:44:22;;;;;;;3.78;1.83;;;21.10;80.40;;;;;;7384095;19;19915;-73
2023/07/25 19:46:54;;;;;;;2.75;1.50;;;21.10;80.60;;;;;;7384732;19;20014;-73
2023/07/25 19:49:23;;;;;;;7.22;1.80;;;21.00;80.80;;;;;;7385287;19;20011;-73
2023/07/25 19:51:52;;;;;;;2.35;1.60;;;20.80;81.10;;;;;;7384668;19;20385;-73
2023/07/25 19:54:20;;;;;;;4.97;1.73;;;20.80;81.90;;;;;;7383910;19;20222;-72
2023/07/25 19:56:52;;;;;;;5.88;1.60;;;20.70;82.30;;;;;;7406850;19;20014;-74
2023/07/25 19:59:20;;;;;;;6.40;2.00;;;20.70;82.10;;;;;;7381182;19;20019;-73
2023/07/25 20:01:49;;;;;;;5.95;1.80;;;20.70;81.90;;;;;;7381051;19;20011;-72
2023/07/25 20:04:18;;;;;;;6.22;1.65;;;20.50;82.40;;;;;;7381835;19;20006;-73
2023/07/25 20:06:46;;;;;;;5.88;1.60;;;20.50;82.90;;;;;;7380647;19;20010;-73
2023/07/25 20:09:15;;;;;;;3.80;1.80;;;20.50;83.30;;;;;;7387732;19;20010;-73
2023/07/25 20:11:44;;;;;;;2.15;1.73;;;20.40;83.30;;;;;;7403084;19;20014;-73
2023/07/25 20:14:16;;;;;;;2.72;1.77;;;20.40;82.90;;;;;;7381402;19;20024;-73
2023/07/25 20:16:44;;;;;;;4.45;2.15;;;20.40;83.10;;;;;;7381767;19;20003;-72
2023/07/25 20:19:13;;;;;;;6.60;1.90;;;20.30;83.80;;;;;;7380579;19;20357;-73
2023/07/25 20:21:42;;;;;;;3.20;1.67;;;20.30;83.10;;;;;;7382649;19;19998;-74
2023/07/25 20:24:12;;;;;;;4.03;1.75;;;20.30;83.40;;;;;;7404456;19;20010;-74
2023/07/25 20:26:41;;;;;;;8.25;2.10;;;20.20;83.30;;;;;;7382355;19;20066;-73
2023/07/25 20:29:09;;;;;;;11.85;6.68;;;20.20;83.30;;;;;;7378681;19;20003;-73
2023/07/25 20:31:41;;;;;;;5.93;2.92;;;20.10;83.40;;;;;;7379484;19;20054;-72
2023/07/25 20:34:09;;;;;;;6.78;1.92;;;20.10;83.90;;;;;;7379404;19;20002;-73
2023/07/25 20:36:38;;;;;;;4.13;2.35;;;20.00;84.40;;;;;;7379098;19;20007;-73
2023/07/25 20:39:07;;;;;;;3.83;1.90;;;20.00;84.20;;;;;;7400181;19;20307;-73
2023/07/25 20:41:35;;;;;;;4.82;1.90;;;19.90;84.50;;;;;;7377780;19;20022;-73
2023/07/25 20:44:04;;;;;;;5.53;2.00;;;19.90;84.40;;;;;;7378569;19;20014;-73
2023/07/25 20:46:33;;;;;;;4.50;2.20;;;19.90;84.40;;;;;;7379080;19;20098;-73
2023/07/25 20:49:05;;;;;;;8.13;2.08;;;19.90;84.40;;;;;;7378812;19;20082;-73
2023/07/25 20:51:33;;;;;;;2.90;2.10;;;19.90;84.50;;;;;;7380212;19;20013;-72
2023/07/25 20:54:02;;;;;;;5.63;2.58;;;19.80;84.70;;;;;;7401573;19;20002;-73
2023/07/25 20:56:31;;;;;;;6.47;2.72;;;19.80;84.70;;;;;;7378062;19;20167;-74
2023/07/25 20:59:00;;;;;;;5.32;2.80;;;19.80;84.80;;;;;;7377282;19;20374;-73
2023/07/25 21:01:29;;;;;;;3.50;2.35;;;19.70;85.20;;;;;;7377748;19;20002;-72
2023/07/25 21:03:58;;;;;;;4.97;2.20;;;19.70;85.30;;;;;;7376713;19;20653;-73
2023/07/25 21:06:30;;;;;;;4.75;2.50;;;19.70;85.40;;;;;;7378174;19;20003;-73
2023/07/25 21:08:59;;;;;;;5.93;4.13;;;19.60;85.50;;;;;;7399809;19;20002;-73
2023/07/25 21:11:27;;;;;;;7.22;4.30;;;19.60;85.50;;;;;;7381481;19;20019;-72
2023/07/25 21:13:56;;;;;;;11.40;2.80;;;19.50;85.60;;;;;;7381521;19;20357;-73
2023/07/25 21:16:25;;;;;;;6.15;2.67;;;19.40;85.60;;;;;;7381921;19;20002;-73
2023/07/25 21:18:53;;;;;;;5.38;2.58;;;19.40;85.90;;;;;;7378102;19;20397;-73
2023/07/25 21:21:22;;;;;;;6.00;2.28;;;19.30;86.60;;;;;;7388819;19;20024;-73
2023/07/25 21:23:53;;;;;;;6.57;2.42;;;19.30;86.80;;;;;;7406620;19;20094;-73
2023/07/25 21:26:22;;;;;;;3.88;2.70;;;19.30;86.80;;;;;;7385025;19;19999;-73
2023/07/25 21:28:51;;;;;;;11.85;2.70;;;19.40;86.70;;;;;;7385472;19;20017;-74
2023/07/25 21:31:19;;;;;;;6.78;3.03;;;19.40;86.70;;;;;;7384715;19;20070;-73
2023/07/25 21:33:48;;;;;;;5.30;2.90;;;19.40;86.50;;;;;;7385264;19;20042;-72
2023/07/25 21:36:17;;;;;;;7.45;2.90;;;19.30;86.60;;;;;;7384567;19;20596;-73
2023/07/25 21:38:45;;;;;;;7.45;3.88;;;19.30;86.90;;;;;;7405699;19;20374;-72
2023/07/25 21:41:17;;;;;;;5.82;3.40;;;19.30;87.20;;;;;;7384102;19;20024;-73
2023/07/25 21:43:45;;;;;;;;;;;19.20;87.40;;;;;;7384477;19;20011;-73
2023/07/25 21:46:14;;;;;;;6.78;2.85;;;19.30;87.70;;;;;;7384243;19;19921;-73
2023/07/25 21:48:43;;;;;;;5.78;2.80;;;19.20;87.30;;;;;;7384805;19;20002;-73
2023/07/25 21:51:11;;;;;;;4.80;2.83;;;19.20;87.40;;;;;;7405894;19;20252;-74
2023/07/25 21:53:40;;;;;;;5.18;3.13;;;19.20;87.40;;;;;;7383959;19;20074;-73
2023/07/25 21:56:10;;;;;;;5.07;2.97;;;19.20;87.30;;;;;;7383432;19;20091;-73
2023/07/25 21:58:42;;;;;;;14.80;5.03;;;19.20;87.30;;;;;;7383949;19;20027;-73
2023/07/25 22:01:11;;;;;;;10.57;5.10;;;19.20;87.50;;;;;;7382747;19;20011;-73
2023/07/25 22:03:39;;;;;;;8.82;2.95;;;19.10;87.40;;;;;;7384230;19;20007;-74
2023/07/25 22:06:08;;;;;;;6.70;2.65;;;19.10;87.60;;;;;;7405819;19;20006;-74
2023/07/25 22:08:37;;;;;;;5.72;3.05;;;19.10;87.40;;;;;;7383742;19;20706;-76
2023/07/25 22:11:06;;;;;;;6.65;2.50;;;19.10;87.20;;;;;;7384477;19;20017;-76
2023/07/25 22:13:38;;;;;;;6.82;2.85;;;19.10;88.10;;;;;;7383828;19;20006;-77
2023/07/25 22:16:10;;;;;;;4.43;2.60;;;19.10;87.50;;;;;;7388466;19;20234;-77
2023/07/25 22:18:43;;;;;;;5.80;3.10;;;19.10;87.40;;;;;;7387259;19;20003;-76
2023/07/25 22:21:17;;;;;;;7.55;2.90;;;19.10;87.50;;;;;;7407926;19;20243;-76
2023/07/25 22:23:45;;;;;;;5.05;2.90;;;19.10;87.50;;;;;;7382786;19;20015;-76
2023/07/25 22:26:14;;;;;;;4.07;2.60;;;19.10;87.40;;;;;;7381611;19;20030;-77
2023/07/25 22:28:43;;;;;;;5.65;2.83;;;19.10;87.40;;;;;;7384676;19;19999;-76
2023/07/25 22:31:16;;;;;;;7.25;2.95;;;19.10;87.40;;;;;;7380956;19;20003;-76
2023/07/25 22:33:45;;;;;;;4.43;2.53;;;19.10;87.40;;;;;;7383266;19;20007;-77
2023/07/25 22:36:14;;;;;;;3.88;2.97;;;19.10;87.10;;;;;;7404223;19;20061;-77
2023/07/25 22:38:44;;;;;;;6.78;3.17;;;19.10;87.00;;;;;;7406575;19;20003;-76
2023/07/25 22:41:14;;;;;;;9.10;3.17;;;19.10;86.80;;;;;;7386418;19;20003;-76
2023/07/25 22:43:43;;;;;;;4.43;2.88;;;19.00;86.70;;;;;;7386081;19;20003;-76
2023/07/25 22:46:14;;;;;;;6.20;2.78;;;18.90;86.90;;;;;;7382407;19;20079;-76
2023/07/25 22:48:45;;;;;;;3.25;2.60;;;18.90;87.20;;;;;;7383819;19;20216;-76
2023/07/25 22:51:14;;;;;;;6.07;2.40;;;18.90;87.20;;;;;;7401077;19;20007;-76
2023/07/25 22:53:43;;;;;;;3.83;2.60;;;18.90;87.10;;;;;;7401770;19;20003;-76
2023/07/25 22:56:11;;;;;;;5.18;2.97;;;18.90;87.30;;;;;;7382652;19;20007;-77
2023/07/25 22:58:40;;;;;;;4.55;2.88;;;18.90;87.20;;;;;;7383216;19;20014;-76
2023/07/25 23:01:09;;;;;;;22.27;7.85;;;18.80;87.20;;;;;;7382394;19;20370;-76
2023/07/25 23:03:40;;;;;;;9.02;5.25;;;18.70;87.30;;;;;;7380808;19;20010;-78
2023/07/25 23:06:09;;;;;;;5.13;2.88;;;18.70;87.60;;;;;;7406199;19;20345;-76
2023/07/25 23:08:38;;;;;;;12.20;3.25;;;18.70;87.20;;;;;;7385711;19;20014;-76
2023/07/25 23:11:06;;;;;;;5.40;3.20;;;18.70;87.40;;;;;;7386379;19;20007;-77
2023/07/25 23:13:35;;;;;;;5.50;2.80;;;18.60;87.50;;;;;;7388568;19;20393;-77
2023/07/25 23:16:04;;;;;;;5.93;2.78;;;18.70;87.70;;;;;;7389544;19;20018;-76
2023/07/25 23:18:32;;;;;;;7.05;2.70;;;18.60;87.50;;;;;;7389202;19;20015;-76
2023/07/25 23:21:04;;;;;;;8.57;2.85;;;18.60;87.70;;;;;;7410071;19;20010;-77
2023/07/25 23:23:32;;;;;;;;;;;18.60;87.70;;;;;;7390565;19;20006;-77
2023/07/25 23:26:04;;;;;;;4.07;2.92;;;18.60;88.10;;;;;;7389669;19;19915;-77
2023/07/25 23:28:34;;;;;;;6.80;2.95;;;18.60;87.70;;;;;;7392404;19;20387;-77
2023/07/25 23:31:03;;;;;;;6.40;3.15;;;18.60;87.70;;;;;;7394522;19;20070;-77
2023/07/25 23:33:32;;;;;;;7.00;2.78;;;18.60;87.70;;;;;;7393262;19;20006;-77
2023/07/25 23:36:01;;;;;;;6.25;3.72;;;18.60;87.90;;;;;;7412800;19;20227;-77
2023/07/25 23:38:32;;;;;;;4.60;3.03;;;18.60;87.90;;;;;;7382197;19;20006;-76
2023/07/25 23:41:01;;;;;;;5.07;2.97;;;18.50;87.90;;;;;;7380098;19;20007;-76
2023/07/25 23:43:30;;;;;;;7.78;2.90;;;18.50;88.10;;;;;;7378963;19;20031;-77
2023/07/25 23:45:59;;;;;;;6.18;2.83;;;18.50;87.60;;;;;;7382164;19;20006;-76
2023/07/25 23:48:28;;;;;;;6.80;2.90;;;18.50;87.50;;;;;;7385319;19;20025;-76
2023/07/25 23:50:56;;;;;;;4.47;2.85;;;18.50;87.30;;;;;;7404932;19;20027;-76
2023/07/25 23:53:25;;;;;;;5.78;3.00;;;18.50;86.90;;;;;;7383126;19;20030;-77
2023/07/25 23:55:56;;;;;;;9.60;3.35;;;18.50;87.10;;;;;;7380512;19;20010;-76
2023/07/25 23:58:25;;;;;;;7.43;2.95;;;18.40;87.70;;;;;;7383578;19;20024;-76
